Doris Moran — WRU2125 — position and weather

sailwx.info

Track history (hours):
 
Tides and Currents Weather Stations Pressure Air Temp Water Temp Dewpoint Dewpoint Depression Visibility Wind Speed Wind Dir Waves Ship Positions

Doris Moran

Owner: MORAN TOWING CORPORATION, New Canaan, CT. More information available from US FCC via Universal Licensing System and Coast Guard Vessel Documentation Center.

Last reported at 2016-May-06 03:33 UTC. Time now 2016-May-06 03:34 UTC.
Position N 40°38' W 074°08'.

Length 36 m; draft 5.3 m.

Type: Towing. MMSI: 366939790.

Date/timePositionNaut miles runAvg speedWind from/ knotsBaromVisibWave heightAir tempDewpointWater temp
2016-May-06 03:33N 40°38' W 074°08'0 0.0
2016-May-06 02:33N 40°38' W 074°08'0 0.0
2016-May-06 01:33N 40°38' W 074°08'4 3.7
2016-May-06 00:33N 40°40' W 074°03'2 1.8
2016-May-05 23:34N 40°39' W 074°05'4 3.8
2016-May-05 22:33N 40°42' W 074°09'1 1.2
2016-May-05 21:33N 40°41' W 074°08'2 0.8
2016-May-05 18:32N 40°38' W 074°08'0 0.0
2016-May-05 17:26N 40°38' W 074°08'0 0.0
2016-May-05 16:26N 40°38' W 074°08'0 0.0
2016-May-05 15:32N 40°38' W 074°08'0 0.0
2016-May-05 14:29N 40°38' W 074°08'0 0.0
2016-May-05 13:32N 40°38' W 074°08'0 0.0
2016-May-05 12:32N 40°38' W 074°08'0 0.0
2016-May-05 11:32N 40°38' W 074°08'0 0.0
2016-May-05 10:32N 40°38' W 074°08'0 0.0
2016-May-05 09:32N 40°38' W 074°08'0 0.0
2016-May-05 08:32N 40°38' W 074°08'0 0.0
2016-May-05 07:29N 40°38' W 074°08'0 0.0
2016-May-05 05:32N 40°38' W 074°08'0 0.0
2016-May-05 04:26N 40°38' W 074°08'0 0.0
2016-May-05 03:32N 40°38' W 074°08'0 0.0
2016-May-05 02:32N 40°38' W 074°08'8 8.1
2016-May-05 01:33N 40°44' W 074°01'  
2016-May-02 05:21N 40°46' W 074°00'7 9.4
2016-May-02 04:33N 40°39' W 074°05'2 2.4
2016-May-02 03:31N 40°38' W 074°08'0 0.0
2016-May-02 02:33N 40°38' W 074°08'0 0.0
2016-May-02 01:32N 40°38' W 074°08'0 0.0
2016-May-02 00:33N 40°38' W 074°08'0 0.0
2016-May-01 23:33N 40°38' W 074°08'0 0.0
2016-May-01 22:33N 40°38' W 074°08'1 1.0
2016-May-01 21:30N 40°39' W 074°06'5 4.7
2016-May-01 20:27N 40°40' W 074°00'1 1.5
2016-May-01 19:33N 40°41' W 074°02'0 0.3
2016-May-01 18:33N 40°40' W 074°02'0 0.0
2016-May-01 17:32N 40°40' W 074°02'0 0.1
2016-May-01 16:33N 40°40' W 074°02'0 0.1
2016-May-01 15:33N 40°40' W 074°02'0 0.0
2016-May-01 14:33N 40°40' W 074°02'0 0.0
2016-May-01 13:33N 40°40' W 074°02'0 0.0
2016-May-01 12:33N 40°40' W 074°02'0 0.0
2016-May-01 11:33N 40°40' W 074°02'0 0.0
2016-May-01 10:33N 40°40' W 074°02'0 0.1
2016-May-01 09:33N 40°40' W 074°02'0 0.1
2016-May-01 08:33N 40°40' W 074°02'0 0.0
2016-May-01 07:33N 40°40' W 074°02'0 0.0
2016-May-01 06:33N 40°40' W 074°02'0 0.0
2016-May-01 05:33N 40°40' W 074°02'0 0.1
2016-May-01 04:33N 40°40' W 074°02'0 0.1
2016-May-01 03:33N 40°40' W 074°02'0 0.0
2016-May-01 02:33N 40°40' W 074°02'0 0.0
2016-May-01 01:33N 40°40' W 074°02'0 0.0
2016-May-01 00:33N 40°40' W 074°02'0 0.0
2016-Apr-30 23:33N 40°40' W 074°02'0 0.1
2016-Apr-30 22:33N 40°40' W 074°02'0 0.1
2016-Apr-30 21:33N 40°40' W 074°02'0 0.1
2016-Apr-30 20:33N 40°40' W 074°02'0 0.0
2016-Apr-30 19:33N 40°40' W 074°02'0 0.0
2016-Apr-30 18:33N 40°40' W 074°02'0 0.0
2016-Apr-30 17:33N 40°40' W 074°02'0 0.2
2016-Apr-30 16:33N 40°40' W 074°02'0 0.0
2016-Apr-30 15:33N 40°40' W 074°02'6 5.8
2016-Apr-30 14:33N 40°45' W 073°58'6 0.3
2016-Apr-29 20:23N 40°48' W 073°50'6 7.8
2016-Apr-29 19:33N 40°45' W 073°58'3 3.2
2016-Apr-29 18:33N 40°43' W 074°01'5 5.1
2016-Apr-29 17:33N 40°39' W 074°05'0 0.5
2016-Apr-29 16:33N 40°39' W 074°06'0 0.0
2016-Apr-29 15:33N 40°39' W 074°06'0 0.0
2016-Apr-29 14:33N 40°39' W 074°06'0 0.0
2016-Apr-29 13:33N 40°39' W 074°06'0 0.0
2016-Apr-29 12:33N 40°39' W 074°06'0 0.0
2016-Apr-29 11:33N 40°39' W 074°06'0 0.0
2016-Apr-29 10:32N 40°39' W 074°06'0 0.0
2016-Apr-29 09:33N 40°39' W 074°06'0 0.0
2016-Apr-29 08:32N 40°39' W 074°06'0 0.0
2016-Apr-29 07:21N 40°39' W 074°06'0 0.0
2016-Apr-29 06:23N 40°39' W 074°06'0 0.0
2016-Apr-29 04:33N 40°39' W 074°06'0 0.0
2016-Apr-29 03:29N 40°39' W 074°06'0 0.0
2016-Apr-29 02:29N 40°39' W 074°06'0 0.0
2016-Apr-29 01:30N 40°39' W 074°06'0 0.0
2016-Apr-29 00:18N 40°39' W 074°06'0 0.0
2016-Apr-28 23:31N 40°39' W 074°06'0 0.0
2016-Apr-28 22:31N 40°39' W 074°06'5 5.2
2016-Apr-28 21:30N 40°35' W 074°01'4 4.2
2016-Apr-28 20:29N 40°31' W 073°59'40 9.2
2016-Apr-28 16:07N 39°51' W 073°58'6 9.8
2016-Apr-28 15:33N 39°45' W 073°59'10 9.8
2016-Apr-28 14:33N 39°36' W 074°04'10 9.8
2016-Apr-28 13:31N 39°27' W 074°10'11 9.9
2016-Apr-28 12:26N 39°19' W 074°18'910.0
2016-Apr-28 11:33N 39°12' W 074°25'1110.0
2016-Apr-28 10:28N 39°04' W 074°35'9 9.8
2016-Apr-28 09:33N 38°58' W 074°43'10 9.7
2016-Apr-28 08:32N 38°50' W 074°51'9 8.8
2016-Apr-28 07:32N 38°49' W 075°02'10 9.8
2016-Apr-28 06:33N 38°58' W 075°08'4 4.4
2016-Apr-28 05:33N 39°02' W 075°10'9 9.4
2016-Apr-28 04:33N 39°10' W 075°16'9 9.2
2016-Apr-28 03:33N 39°18' W 075°22'10 9.7
2016-Apr-28 02:33N 39°25' W 075°31'40 6.6
2016-Apr-27 20:30N 39°09' W 076°19'7 7.7
2016-Apr-27 19:33N 39°12' W 076°28'1 0.1
2016-Apr-27 12:34N 39°13' W 076°28'0 0.0
2016-Apr-27 11:31N 39°13' W 076°28'0 0.0
2016-Apr-27 10:34N 39°13' W 076°28'0 0.0
2016-Apr-26 15:33N 39°13' W 076°28'0 0.0
2016-Apr-26 14:33N 39°13' W 076°28'4 4.5
2016-Apr-26 13:33N 39°13' W 076°33'1 0.6
2016-Apr-26 12:33N 39°14' W 076°34'0 0.0
2016-Apr-26 11:33N 39°14' W 076°34'0 0.0
2016-Apr-26 10:33N 39°14' W 076°34'2 1.8
2016-Apr-26 09:33N 39°13' W 076°32'3 3.2
2016-Apr-26 08:32N 39°13' W 076°28'0 0.0
2016-Apr-26 07:32N 39°13' W 076°28'0 0.0
2016-Apr-26 06:14N 39°13' W 076°28'0 0.0
2016-Apr-26 05:32N 39°13' W 076°28'0 0.0
2016-Apr-26 04:29N 39°13' W 076°28'  
Track history (hours):
 
Tides and Currents Weather Stations Pressure Air Temp Water Temp Dewpoint Dewpoint Depression Visibility Wind Speed Wind Dir Waves Ship Positions

Doris Moran

Owner: MORAN TOWING CORPORATION, New Canaan, CT. More information available from US FCC via Universal Licensing System and Coast Guard Vessel Documentation Center.

Last reported at 2016-May-06 03:33 UTC. Time now 2016-May-06 03:34 UTC.
Position N 40°38' W 074°08'.

Length 36 m; draft 5.3 m.

Type: Towing. MMSI: 366939790.

Date/timePositionNaut miles runAvg speedWind from/ knotsBaromVisibWave heightAir tempDewpointWater temp
2016-May-06 03:33N 40°38' W 074°08'0 0.0
2016-May-06 02:33N 40°38' W 074°08'0 0.0
2016-May-06 01:33N 40°38' W 074°08'4 3.7
2016-May-06 00:33N 40°40' W 074°03'2 1.8
2016-May-05 23:34N 40°39' W 074°05'4 3.8
2016-May-05 22:33N 40°42' W 074°09'1 1.2
2016-May-05 21:33N 40°41' W 074°08'2 0.8
2016-May-05 18:32N 40°38' W 074°08'0 0.0
2016-May-05 17:26N 40°38' W 074°08'0 0.0
2016-May-05 16:26N 40°38' W 074°08'0 0.0
2016-May-05 15:32N 40°38' W 074°08'0 0.0
2016-May-05 14:29N 40°38' W 074°08'0 0.0
2016-May-05 13:32N 40°38' W 074°08'0 0.0
2016-May-05 12:32N 40°38' W 074°08'0 0.0
2016-May-05 11:32N 40°38' W 074°08'0 0.0
2016-May-05 10:32N 40°38' W 074°08'0 0.0
2016-May-05 09:32N 40°38' W 074°08'0 0.0
2016-May-05 08:32N 40°38' W 074°08'0 0.0
2016-May-05 07:29N 40°38' W 074°08'0 0.0
2016-May-05 05:32N 40°38' W 074°08'0 0.0
2016-May-05 04:26N 40°38' W 074°08'0 0.0
2016-May-05 03:32N 40°38' W 074°08'0 0.0
2016-May-05 02:32N 40°38' W 074°08'8 8.1
2016-May-05 01:33N 40°44' W 074°01'  
2016-May-02 05:21N 40°46' W 074°00'7 9.4
2016-May-02 04:33N 40°39' W 074°05'2 2.4
2016-May-02 03:31N 40°38' W 074°08'0 0.0
2016-May-02 02:33N 40°38' W 074°08'0 0.0
2016-May-02 01:32N 40°38' W 074°08'0 0.0
2016-May-02 00:33N 40°38' W 074°08'0 0.0
2016-May-01 23:33N 40°38' W 074°08'0 0.0
2016-May-01 22:33N 40°38' W 074°08'1 1.0
2016-May-01 21:30N 40°39' W 074°06'5 4.7
2016-May-01 20:27N 40°40' W 074°00'1 1.5
2016-May-01 19:33N 40°41' W 074°02'0 0.3
2016-May-01 18:33N 40°40' W 074°02'0 0.0
2016-May-01 17:32N 40°40' W 074°02'0 0.1
2016-May-01 16:33N 40°40' W 074°02'0 0.1
2016-May-01 15:33N 40°40' W 074°02'0 0.0
2016-May-01 14:33N 40°40' W 074°02'0 0.0
2016-May-01 13:33N 40°40' W 074°02'0 0.0
2016-May-01 12:33N 40°40' W 074°02'0 0.0
2016-May-01 11:33N 40°40' W 074°02'0 0.0
2016-May-01 10:33N 40°40' W 074°02'0 0.1
2016-May-01 09:33N 40°40' W 074°02'0 0.1
2016-May-01 08:33N 40°40' W 074°02'0 0.0
2016-May-01 07:33N 40°40' W 074°02'0 0.0
2016-May-01 06:33N 40°40' W 074°02'0 0.0
2016-May-01 05:33N 40°40' W 074°02'0 0.1
2016-May-01 04:33N 40°40' W 074°02'0 0.1
2016-May-01 03:33N 40°40' W 074°02'0 0.0
2016-May-01 02:33N 40°40' W 074°02'0 0.0
2016-May-01 01:33N 40°40' W 074°02'0 0.0
2016-May-01 00:33N 40°40' W 074°02'0 0.0
2016-Apr-30 23:33N 40°40' W 074°02'0 0.1
2016-Apr-30 22:33N 40°40' W 074°02'0 0.1
2016-Apr-30 21:33N 40°40' W 074°02'0 0.1
2016-Apr-30 20:33N 40°40' W 074°02'0 0.0
2016-Apr-30 19:33N 40°40' W 074°02'0 0.0
2016-Apr-30 18:33N 40°40' W 074°02'0 0.0
2016-Apr-30 17:33N 40°40' W 074°02'0 0.2
2016-Apr-30 16:33N 40°40' W 074°02'0 0.0
2016-Apr-30 15:33N 40°40' W 074°02'6 5.8
2016-Apr-30 14:33N 40°45' W 073°58'6 0.3
2016-Apr-29 20:23N 40°48' W 073°50'6 7.8
2016-Apr-29 19:33N 40°45' W 073°58'3 3.2
2016-Apr-29 18:33N 40°43' W 074°01'5 5.1
2016-Apr-29 17:33N 40°39' W 074°05'0 0.5
2016-Apr-29 16:33N 40°39' W 074°06'0 0.0
2016-Apr-29 15:33N 40°39' W 074°06'0 0.0
2016-Apr-29 14:33N 40°39' W 074°06'0 0.0
2016-Apr-29 13:33N 40°39' W 074°06'0 0.0
2016-Apr-29 12:33N 40°39' W 074°06'0 0.0
2016-Apr-29 11:33N 40°39' W 074°06'0 0.0
2016-Apr-29 10:32N 40°39' W 074°06'0 0.0
2016-Apr-29 09:33N 40°39' W 074°06'0 0.0
2016-Apr-29 08:32N 40°39' W 074°06'0 0.0
2016-Apr-29 07:21N 40°39' W 074°06'0 0.0
2016-Apr-29 06:23N 40°39' W 074°06'0 0.0
2016-Apr-29 04:33N 40°39' W 074°06'0 0.0
2016-Apr-29 03:29N 40°39' W 074°06'0 0.0
2016-Apr-29 02:29N 40°39' W 074°06'0 0.0
2016-Apr-29 01:30N 40°39' W 074°06'0 0.0
2016-Apr-29 00:18N 40°39' W 074°06'0 0.0
2016-Apr-28 23:31N 40°39' W 074°06'0 0.0
2016-Apr-28 22:31N 40°39' W 074°06'5 5.2
2016-Apr-28 21:30N 40°35' W 074°01'4 4.2
2016-Apr-28 20:29N 40°31' W 073°59'40 9.2
2016-Apr-28 16:07N 39°51' W 073°58'6 9.8
2016-Apr-28 15:33N 39°45' W 073°59'10 9.8
2016-Apr-28 14:33N 39°36' W 074°04'10 9.8
2016-Apr-28 13:31N 39°27' W 074°10'11 9.9
2016-Apr-28 12:26N 39°19' W 074°18'910.0
2016-Apr-28 11:33N 39°12' W 074°25'1110.0
2016-Apr-28 10:28N 39°04' W 074°35'9 9.8
2016-Apr-28 09:33N 38°58' W 074°43'10 9.7
2016-Apr-28 08:32N 38°50' W 074°51'9 8.8
2016-Apr-28 07:32N 38°49' W 075°02'10 9.8
2016-Apr-28 06:33N 38°58' W 075°08'4 4.4
2016-Apr-28 05:33N 39°02' W 075°10'9 9.4
2016-Apr-28 04:33N 39°10' W 075°16'9 9.2
2016-Apr-28 03:33N 39°18' W 075°22'10 9.7
2016-Apr-28 02:33N 39°25' W 075°31'40 6.6
2016-Apr-27 20:30N 39°09' W 076°19'7 7.7
2016-Apr-27 19:33N 39°12' W 076°28'1 0.1
2016-Apr-27 12:34N 39°13' W 076°28'0 0.0
2016-Apr-27 11:31N 39°13' W 076°28'0 0.0
2016-Apr-27 10:34N 39°13' W 076°28'0 0.0
2016-Apr-26 15:33N 39°13' W 076°28'0 0.0
2016-Apr-26 14:33N 39°13' W 076°28'4 4.5
2016-Apr-26 13:33N 39°13' W 076°33'1 0.6
2016-Apr-26 12:33N 39°14' W 076°34'0 0.0
2016-Apr-26 11:33N 39°14' W 076°34'0 0.0
2016-Apr-26 10:33N 39°14' W 076°34'2 1.8
2016-Apr-26 09:33N 39°13' W 076°32'3 3.2
2016-Apr-26 08:32N 39°13' W 076°28'0 0.0
2016-Apr-26 07:32N 39°13' W 076°28'0 0.0
2016-Apr-26 06:14N 39°13' W 076°28'0 0.0
2016-Apr-26 05:32N 39°13' W 076°28'0 0.0
2016-Apr-26 04:29N 39°13' W 076°28'  

Dump ship's entire track history